createdAt,value
2018-12-19T00:04:44.192Z,27.47
2018-12-19T00:09:40.090Z,28.57
2018-12-19T00:14:35.915Z,25.83
2018-12-19T00:19:31.700Z,30.90
2018-12-19T00:24:27.493Z,33.57
2018-12-19T00:29:23.257Z,32.87
2018-12-19T00:34:19.034Z,34.80
2018-12-19T00:39:16.066Z,30.33
2018-12-19T00:44:12.038Z,34.97
2018-12-19T00:49:07.827Z,32.57
2018-12-19T00:54:03.602Z,34.03
2018-12-19T00:58:59.380Z,37.67
2018-12-19T01:03:55.213Z,40.03
2018-12-19T01:08:51.037Z,33.33
2018-12-19T01:13:46.989Z,39.50
2018-12-19T01:18:42.752Z,39.33
2018-12-19T01:23:38.516Z,36.43
2018-12-19T01:28:34.277Z,37.73
2018-12-19T01:33:30.056Z,34.60
2018-12-19T01:38:25.849Z,36.10
2018-12-19T01:43:21.608Z,40.17
2018-12-19T01:48:17.409Z,38.77
2018-12-19T01:53:13.193Z,38.07
2018-12-19T01:58:09.037Z,36.93
2018-12-19T02:03:04.828Z,36.47
2018-12-19T02:08:00.647Z,35.13
2018-12-19T02:12:56.433Z,36.70
2018-12-19T02:17:52.246Z,36.40
2018-12-19T02:22:48.004Z,37.90
2018-12-19T02:27:43.849Z,40.33
2018-12-19T02:32:39.659Z,41.73
2018-12-19T02:37:35.472Z,41.00
2018-12-19T02:42:31.205Z,41.60
2018-12-19T02:47:27.017Z,39.93
2018-12-19T02:52:22.821Z,41.60
2018-12-19T03:02:13.310Z,34.80
2018-12-19T03:07:09.117Z,36.63
2018-12-19T03:12:04.935Z,34.53
2018-12-19T03:17:01.161Z,38.07
2018-12-19T03:21:56.967Z,33.83
2018-12-19T03:26:52.752Z,34.90
2018-12-19T03:31:48.503Z,33.03
2018-12-19T03:36:44.275Z,34.27
2018-12-19T03:41:40.068Z,37.27
2018-12-19T03:46:35.869Z,33.47
2018-12-19T03:51:31.694Z,35.30
2018-12-19T03:56:27.459Z,36.63
2018-12-19T04:01:23.271Z,39.63
2018-12-19T04:06:19.107Z,33.97
2018-12-19T04:11:14.845Z,37.93
2018-12-19T04:16:10.633Z,38.93
2018-12-19T04:21:06.419Z,39.07
2018-12-19T04:26:02.184Z,36.47
2018-12-19T04:30:57.977Z,42.20
2018-12-19T04:35:54.029Z,43.27
2018-12-19T04:40:49.865Z,36.90
2018-12-19T04:45:45.742Z,39.37
2018-12-19T04:50:41.518Z,38.37
2018-12-19T04:55:37.298Z,35.27
2018-12-19T05:00:33.113Z,38.70
2018-12-19T05:05:28.913Z,35.03
2018-12-19T05:10:24.772Z,36.50
2018-12-19T05:15:20.604Z,36.47
2018-12-19T05:20:16.369Z,33.10
2018-12-19T05:25:13.133Z,40.10
2018-12-19T05:30:09.129Z,33.50
2018-12-19T05:35:05.114Z,34.87
2018-12-19T05:40:00.891Z,34.13
2018-12-19T05:44:56.667Z,32.13
2018-12-19T05:49:52.744Z,33.53
2018-12-19T05:54:48.532Z,33.50
2018-12-19T05:59:44.320Z,36.60
2018-12-19T06:04:40.131Z,33.17
2018-12-19T06:09:35.968Z,30.57
2018-12-19T06:14:31.741Z,34.43
2018-12-19T06:19:27.545Z,36.03
2018-12-19T06:24:23.304Z,32.73
2018-12-19T06:29:19.065Z,35.93
2018-12-19T06:34:14.891Z,33.70
2018-12-19T06:39:10.871Z,34.57
2018-12-19T06:44:06.684Z,39.77
2018-12-19T06:49:02.495Z,39.67
2018-12-19T06:53:58.258Z,35.60
2018-12-19T06:58:54.024Z,37.87
2018-12-19T07:03:49.876Z,37.27
2018-12-19T07:08:45.685Z,41.53
2018-12-19T07:13:41.460Z,39.87
2018-12-19T07:18:37.251Z,39.07
2018-12-19T07:23:33.036Z,35.10
2018-12-19T07:28:28.838Z,42.17
2018-12-19T07:33:24.664Z,40.67
2018-12-19T07:38:20.487Z,44.27
2018-12-19T07:43:16.262Z,44.20
2018-12-19T07:48:12.387Z,39.97
2018-12-19T07:53:08.439Z,38.83
2018-12-19T07:58:04.514Z,39.70
2018-12-19T08:03:00.322Z,39.60
2018-12-19T08:07:56.265Z,42.53
2018-12-19T08:12:52.093Z,40.53
2018-12-19T08:17:47.862Z,41.90
2018-12-19T08:22:43.666Z,42.43
2018-12-19T08:27:39.473Z,39.17
2018-12-19T08:32:35.254Z,36.07
2018-12-19T08:37:31.112Z,37.63
2018-12-19T08:42:26.931Z,37.00
2018-12-19T08:47:22.728Z,38.30
2018-12-19T08:52:18.551Z,34.83
2018-12-19T08:57:14.319Z,36.93
2018-12-19T09:02:10.154Z,32.43
2018-12-19T09:07:06.004Z,35.73
2018-12-19T09:12:01.832Z,33.00
2018-12-19T09:16:57.600Z,33.93
2018-12-19T09:21:53.730Z,36.50
2018-12-19T09:26:49.548Z,35.97
2018-12-19T09:31:45.671Z,34.53
2018-12-19T09:36:41.624Z,32.30
2018-12-19T09:41:37.420Z,34.20
2018-12-19T09:46:33.322Z,34.57
2018-12-19T09:51:29.104Z,36.00
2018-12-19T09:56:24.853Z,36.03
2018-12-19T10:01:20.668Z,32.53
2018-12-19T10:06:16.446Z,34.07
2018-12-19T10:11:18.605Z,32.83
2018-12-19T10:16:10.011Z,32.50
2018-12-19T10:21:06.230Z,34.67
2018-12-19T10:26:08.925Z,32.27
2018-12-19T10:31:04.897Z,34.40
2018-12-19T10:36:00.835Z,35.50
2018-12-19T10:40:56.622Z,31.93
2018-12-19T10:45:53.397Z,34.40
2018-12-19T10:50:49.230Z,32.77
2018-12-19T10:55:45.015Z,36.43
2018-12-19T11:00:46.946Z,32.80
2018-12-19T11:05:42.752Z,35.93
2018-12-19T11:10:38.563Z,31.97
2018-12-19T11:15:34.349Z,34.03
2018-12-19T11:20:30.291Z,35.73
2018-12-19T11:25:26.314Z,32.07
2018-12-19T11:30:22.135Z,31.17
2018-12-19T11:35:17.909Z,32.70
2018-12-19T11:40:13.724Z,33.63
2018-12-19T11:45:09.468Z,31.43
2018-12-19T11:50:05.898Z,32.60
2018-12-19T11:55:01.698Z,30.47
2018-12-19T11:59:57.523Z,33.30
2018-12-19T12:04:53.382Z,35.00
2018-12-19T12:09:49.401Z,33.43
2018-12-19T12:14:46.225Z,33.20
2018-12-19T12:19:42.028Z,32.07
2018-12-19T12:24:37.832Z,34.13
2018-12-19T12:29:33.659Z,36.00
2018-12-19T12:34:29.454Z,31.30
2018-12-19T12:39:25.261Z,34.73
2018-12-19T12:44:21.074Z,37.77
2018-12-19T12:49:16.904Z,35.73
2018-12-19T12:54:12.696Z,37.63
2018-12-19T12:59:08.490Z,32.97
2018-12-19T13:04:04.256Z,39.00
2018-12-19T13:09:00.041Z,36.63
2018-12-19T13:13:55.814Z,36.03
2018-12-19T13:18:51.617Z,37.40
2018-12-19T13:23:47.434Z,40.33
2018-12-19T13:28:43.219Z,38.83
2018-12-19T13:33:38.997Z,38.90
2018-12-19T13:38:34.837Z,40.17
2018-12-19T13:43:30.692Z,40.20
2018-12-19T13:48:26.490Z,40.87
2018-12-19T13:53:22.258Z,38.83
2018-12-19T13:58:18.368Z,37.47
2018-12-19T14:03:14.173Z,36.90
2018-12-19T14:08:10.070Z,38.50
2018-12-19T14:13:05.878Z,39.37
2018-12-19T14:18:01.659Z,36.97
2018-12-19T14:22:57.463Z,40.17
2018-12-19T14:27:53.245Z,37.80
2018-12-19T14:32:49.046Z,37.33
2018-12-19T14:37:44.819Z,38.97
2018-12-19T14:42:40.618Z,35.40
2018-12-19T14:47:36.407Z,38.27
2018-12-19T14:52:32.282Z,32.03
2018-12-19T14:57:28.095Z,38.57
2018-12-19T15:02:23.909Z,36.33
2018-12-19T15:07:19.691Z,40.23
2018-12-19T15:12:15.494Z,36.57
2018-12-19T15:17:13.929Z,42.80
2018-12-19T15:22:09.181Z,42.53
2018-12-19T15:27:05.098Z,39.97
2018-12-19T15:32:00.960Z,36.87
2018-12-19T15:36:56.866Z,41.43
2018-12-19T15:41:52.640Z,36.43
2018-12-19T15:46:48.411Z,38.70
2018-12-19T15:51:44.219Z,35.93
2018-12-19T15:56:40.007Z,39.70
2018-12-19T16:01:35.837Z,39.90
2018-12-19T16:06:31.604Z,41.27
2018-12-19T16:11:27.398Z,39.53
2018-12-19T16:16:23.191Z,54.33
2018-12-19T16:21:19.087Z,41.87
2018-12-19T16:26:14.852Z,55.33
2018-12-19T16:31:10.656Z,40.30
2018-12-19T16:36:06.467Z,34.60
2018-12-19T16:41:02.256Z,38.57
2018-12-19T16:45:58.044Z,40.60
2018-12-19T16:50:53.811Z,39.10
2018-12-19T16:55:49.579Z,38.87
2018-12-19T17:00:45.426Z,39.20
2018-12-19T17:05:41.521Z,39.70
2018-12-19T17:10:37.298Z,41.07
2018-12-19T17:15:33.103Z,43.67
2018-12-19T17:20:28.867Z,42.90
2018-12-19T17:25:24.800Z,36.90
2018-12-19T17:30:20.656Z,41.80
2018-12-19T17:35:16.473Z,44.77
2018-12-19T17:40:12.424Z,40.67
2018-12-19T17:45:08.270Z,40.50
2018-12-19T17:50:04.582Z,40.77
2018-12-19T17:55:00.341Z,45.30
2018-12-19T17:59:56.330Z,47.50
2018-12-19T18:04:52.179Z,45.60
2018-12-19T18:09:48.095Z,52.53
2018-12-19T18:14:43.905Z,47.67
2018-12-19T18:19:39.660Z,45.10
2018-12-19T18:24:35.461Z,47.33
2018-12-19T18:29:31.224Z,44.73
2018-12-19T18:34:27.048Z,49.17
2018-12-19T18:39:26.138Z,47.63
2018-12-19T18:44:20.655Z,48.87
2018-12-19T18:49:16.430Z,45.40
2018-12-19T18:54:12.221Z,55.50
2018-12-19T18:59:08.094Z,46.97
2018-12-19T19:04:04.013Z,46.30
2018-12-19T19:08:59.907Z,50.00
2018-12-19T19:13:55.748Z,47.73
2018-12-19T19:18:51.568Z,60.23
2018-12-19T19:23:47.450Z,49.70
2018-12-19T19:28:43.254Z,47.17
2018-12-19T19:33:39.004Z,49.70
2018-12-19T19:38:35.284Z,47.97
2018-12-19T19:43:31.110Z,42.83
2018-12-19T19:48:26.900Z,46.73
2018-12-19T19:53:22.716Z,44.07
2018-12-19T19:58:18.468Z,45.77
2018-12-19T20:03:14.464Z,49.57
2018-12-19T20:08:10.274Z,46.03
2018-12-19T20:13:06.079Z,49.67
2018-12-19T20:18:02.042Z,48.17
2018-12-19T20:22:57.847Z,47.60
2018-12-19T20:27:53.707Z,43.50
2018-12-19T20:32:49.509Z,43.63
2018-12-19T20:37:45.293Z,52.17
2018-12-19T20:42:42.162Z,50.37
2018-12-19T20:47:37.943Z,48.83
2018-12-19T20:52:33.759Z,47.10
2018-12-19T20:57:29.585Z,42.07
2018-12-19T21:02:25.391Z,41.23
2018-12-19T21:07:21.169Z,40.33
2018-12-19T21:12:16.942Z,45.80
2018-12-19T21:17:18.896Z,42.40
2018-12-19T21:22:14.720Z,41.57
2018-12-19T21:27:10.593Z,44.97
2018-12-19T21:32:06.399Z,43.23
2018-12-19T21:37:02.227Z,45.13
2018-12-19T21:41:58.096Z,43.63
2018-12-19T21:46:53.926Z,41.17
2018-12-19T21:51:49.712Z,42.30
2018-12-19T21:56:45.515Z,40.97
2018-12-19T22:01:41.636Z,44.20
2018-12-19T22:06:37.685Z,41.80
2018-12-19T22:11:33.524Z,46.87
2018-12-19T22:16:35.602Z,42.67
2018-12-19T22:21:31.448Z,41.93
2018-12-19T22:26:28.027Z,41.87
2018-12-19T22:31:23.830Z,44.70
2018-12-19T22:36:19.694Z,43.73
2018-12-19T22:41:15.551Z,42.07
2018-12-19T22:46:11.543Z,40.60
2018-12-19T22:51:07.425Z,41.87
2018-12-19T22:56:03.340Z,45.07
2018-12-19T23:01:05.328Z,36.63
2018-12-19T23:06:01.183Z,42.20
2018-12-19T23:10:57.074Z,43.47
2018-12-19T23:15:52.883Z,40.03
2018-12-19T23:20:48.851Z,42.60
2018-12-19T23:25:44.861Z,40.57
2018-12-19T23:30:40.685Z,40.67
2018-12-19T23:35:36.493Z,41.67
2018-12-19T23:40:32.286Z,39.93
2018-12-19T23:45:28.084Z,43.07
2018-12-19T23:50:23.871Z,40.87
2018-12-19T23:55:19.763Z,40.80
